sensor_id;sensor_type;location;lat;lon;timestamp;pressure;altitude;pressure_sealevel;temperature;humidity
17521;BME280;8878;-33.370;-70.552;2022-12-07T00:01:51;92045.97;;;30.77;23.83
17521;BME280;8878;-33.370;-70.552;2022-12-07T00:04:20;92047.16;;;30.72;24.12
17521;BME280;8878;-33.370;-70.552;2022-12-07T00:06:52;92052.19;;;30.70;24.56
17521;BME280;8878;-33.370;-70.552;2022-12-07T00:09:21;92053.38;;;30.48;25.80
17521;BME280;8878;-33.370;-70.552;2022-12-07T00:11:51;92054.56;;;30.36;25.44
17521;BME280;8878;-33.370;-70.552;2022-12-07T00:14:21;92061.59;;;30.23;25.98
17521;BME280;8878;-33.370;-70.552;2022-12-07T00:16:53;92061.56;;;30.06;26.54
17521;BME280;8878;-33.370;-70.552;2022-12-07T00:19:23;92066.59;;;29.89;27.09
17521;BME280;8878;-33.370;-70.552;2022-12-07T00:21:52;92061.94;;;29.83;27.35
17521;BME280;8878;-33.370;-70.552;2022-12-07T00:24:21;92075.91;;;29.74;26.92
17521;BME280;8878;-33.370;-70.552;2022-12-07T00:26:52;92066.56;;;29.65;27.41
17521;BME280;8878;-33.370;-70.552;2022-12-07T00:29:21;92070.06;;;29.54;28.40
17521;BME280;8878;-33.370;-70.552;2022-12-07T00:31:52;92066.94;;;29.52;27.89
17521;BME280;8878;-33.370;-70.552;2022-12-07T00:34:22;92069.25;;;29.50;27.95
17521;BME280;8878;-33.370;-70.552;2022-12-07T00:36:51;92072.78;;;29.54;28.18
17521;BME280;8878;-33.370;-70.552;2022-12-07T00:39:21;92066.50;;;29.36;28.92
17521;BME280;8878;-33.370;-70.552;2022-12-07T00:41:50;92068.78;;;29.27;29.18
17521;BME280;8878;-33.370;-70.552;2022-12-07T00:44:19;92069.91;;;29.23;29.12
17521;BME280;8878;-33.370;-70.552;2022-12-07T00:46:48;92069.50;;;29.17;29.17
17521;BME280;8878;-33.370;-70.552;2022-12-07T00:49:20;92074.50;;;29.04;29.37
17521;BME280;8878;-33.370;-70.552;2022-12-07T00:51:49;92079.13;;;28.97;29.63
17521;BME280;8878;-33.370;-70.552;2022-12-07T00:54:18;92074.06;;;28.92;29.72
17521;BME280;8878;-33.370;-70.552;2022-12-07T00:56:47;92072.06;;;28.85;30.16
17521;BME280;8878;-33.370;-70.552;2022-12-07T00:59:17;92076.75;;;28.85;29.68
17521;BME280;8878;-33.370;-70.552;2022-12-07T01:01:46;92081.41;;;28.84;28.93
17521;BME280;8878;-33.370;-70.552;2022-12-07T01:04:15;92084.34;;;28.65;30.33
17521;BME280;8878;-33.370;-70.552;2022-12-07T01:06:46;92087.84;;;28.65;30.65
17521;BME280;8878;-33.370;-70.552;2022-12-07T01:09:15;92090.00;;;28.42;29.19
17521;BME280;8878;-33.370;-70.552;2022-12-07T01:11:44;92091.25;;;28.48;29.45
17521;BME280;8878;-33.370;-70.552;2022-12-07T01:14:14;92095.53;;;28.53;30.43
17521;BME280;8878;-33.370;-70.552;2022-12-07T01:16:43;92098.19;;;28.49;30.01
17521;BME280;8878;-33.370;-70.552;2022-12-07T01:19:12;92102.53;;;28.54;29.99
17521;BME280;8878;-33.370;-70.552;2022-12-07T01:21:41;92102.88;;;28.52;29.44
17521;BME280;8878;-33.370;-70.552;2022-12-07T01:24:13;92102.78;;;28.38;29.88
17521;BME280;8878;-33.370;-70.552;2022-12-07T01:26:42;92101.22;;;28.37;29.57
17521;BME280;8878;-33.370;-70.552;2022-12-07T01:29:11;92103.94;;;28.37;29.94
17521;BME280;8878;-33.370;-70.552;2022-12-07T01:31:41;92101.97;;;28.30;29.82
17521;BME280;8878;-33.370;-70.552;2022-12-07T01:34:10;92104.03;;;28.03;29.91
17521;BME280;8878;-33.370;-70.552;2022-12-07T01:36:40;92111.13;;;27.75;29.99
17521;BME280;8878;-33.370;-70.552;2022-12-07T01:39:12;92106.22;;;27.87;30.23
17521;BME280;8878;-33.370;-70.552;2022-12-07T01:41:41;92101.56;;;27.84;30.33
17521;BME280;8878;-33.370;-70.552;2022-12-07T01:44:17;92109.72;;;27.88;29.80
17521;BME280;8878;-33.370;-70.552;2022-12-07T01:46:47;92107.03;;;27.91;30.94
17521;BME280;8878;-33.370;-70.552;2022-12-07T01:49:21;92104.69;;;27.90;30.28
17521;BME280;8878;-33.370;-70.552;2022-12-07T01:51:56;92103.91;;;27.89;32.02
17521;BME280;8878;-33.370;-70.552;2022-12-07T01:54:29;92101.94;;;27.83;32.04
17521;BME280;8878;-33.370;-70.552;2022-12-07T01:56:58;92111.56;;;27.80;32.38
17521;BME280;8878;-33.370;-70.552;2022-12-07T01:59:28;92105.31;;;27.73;34.70
17521;BME280;8878;-33.370;-70.552;2022-12-07T02:01:57;92108.28;;;27.60;35.31
17521;BME280;8878;-33.370;-70.552;2022-12-07T02:04:27;92111.84;;;27.35;35.04
17521;BME280;8878;-33.370;-70.552;2022-12-07T02:06:57;92110.91;;;27.20;35.09
17521;BME280;8878;-33.370;-70.552;2022-12-07T02:09:28;92107.63;;;27.07;35.91
17521;BME280;8878;-33.370;-70.552;2022-12-07T02:11:57;92109.63;;;27.10;35.63
17521;BME280;8878;-33.370;-70.552;2022-12-07T02:14:27;92112.03;;;26.89;37.13
17521;BME280;8878;-33.370;-70.552;2022-12-07T02:17:05;92117.25;;;26.75;37.12
17521;BME280;8878;-33.370;-70.552;2022-12-07T02:25:54;92107.97;;;26.46;37.33
17521;BME280;8878;-33.370;-70.552;2022-12-07T02:28:30;92101.66;;;26.38;37.66
17521;BME280;8878;-33.370;-70.552;2022-12-07T02:31:06;92106.53;;;26.29;38.32
17521;BME280;8878;-33.370;-70.552;2022-12-07T02:33:40;92108.09;;;26.30;38.24
17521;BME280;8878;-33.370;-70.552;2022-12-07T02:36:15;92108.75;;;26.24;37.92
17521;BME280;8878;-33.370;-70.552;2022-12-07T02:38:51;92109.78;;;26.16;37.79
17521;BME280;8878;-33.370;-70.552;2022-12-07T02:41:27;92106.19;;;26.08;37.55
17521;BME280;8878;-33.370;-70.552;2022-12-07T02:43:59;92116.63;;;26.09;37.67
17521;BME280;8878;-33.370;-70.552;2022-12-07T02:46:33;92112.13;;;25.94;36.56
17521;BME280;8878;-33.370;-70.552;2022-12-07T02:49:04;92105.91;;;25.90;35.88
17521;BME280;8878;-33.370;-70.552;2022-12-07T02:51:38;92110.16;;;25.68;35.28
17521;BME280;8878;-33.370;-70.552;2022-12-07T02:54:12;92113.41;;;25.78;35.24
17521;BME280;8878;-33.370;-70.552;2022-12-07T02:56:47;92103.00;;;26.02;36.24
17521;BME280;8878;-33.370;-70.552;2022-12-07T02:59:27;92106.00;;;26.20;37.41
17521;BME280;8878;-33.370;-70.552;2022-12-07T03:02:08;92101.19;;;26.10;35.29
17521;BME280;8878;-33.370;-70.552;2022-12-07T03:04:48;92104.03;;;26.17;36.01
17521;BME280;8878;-33.370;-70.552;2022-12-07T03:07:26;92094.31;;;26.12;37.48
17521;BME280;8878;-33.370;-70.552;2022-12-07T03:10:03;92097.38;;;26.11;36.34
17521;BME280;8878;-33.370;-70.552;2022-12-07T03:12:43;92096.81;;;26.02;36.20
17521;BME280;8878;-33.370;-70.552;2022-12-07T03:15:18;92103.09;;;26.06;36.57
17521;BME280;8878;-33.370;-70.552;2022-12-07T03:17:51;92094.06;;;25.98;36.02
17521;BME280;8878;-33.370;-70.552;2022-12-07T03:20:23;92097.13;;;25.97;36.49
17521;BME280;8878;-33.370;-70.552;2022-12-07T03:22:54;92095.03;;;25.87;35.30
17521;BME280;8878;-33.370;-70.552;2022-12-07T03:25:26;92091.13;;;25.84;36.87
17521;BME280;8878;-33.370;-70.552;2022-12-07T03:27:58;92083.19;;;25.72;37.52
17521;BME280;8878;-33.370;-70.552;2022-12-07T03:30:32;92087.41;;;25.69;37.79
17521;BME280;8878;-33.370;-70.552;2022-12-07T03:33:07;92086.47;;;25.39;37.36
17521;BME280;8878;-33.370;-70.552;2022-12-07T03:35:41;92086.28;;;25.51;35.49
17521;BME280;8878;-33.370;-70.552;2022-12-07T03:38:17;92092.19;;;25.57;37.84
17521;BME280;8878;-33.370;-70.552;2022-12-07T03:40:50;92084.50;;;25.59;36.76
17521;BME280;8878;-33.370;-70.552;2022-12-07T03:43:23;92087.56;;;25.57;38.23
17521;BME280;8878;-33.370;-70.552;2022-12-07T03:46:00;92080.41;;;25.46;37.66
17521;BME280;8878;-33.370;-70.552;2022-12-07T03:48:37;92083.75;;;25.39;36.96
17521;BME280;8878;-33.370;-70.552;2022-12-07T03:51:13;92085.19;;;25.33;38.69
17521;BME280;8878;-33.370;-70.552;2022-12-07T03:53:48;92090.38;;;25.22;37.69
17521;BME280;8878;-33.370;-70.552;2022-12-07T03:56:21;92087.81;;;25.29;37.14
17521;BME280;8878;-33.370;-70.552;2022-12-07T03:58:52;92088.66;;;25.33;38.37
17521;BME280;8878;-33.370;-70.552;2022-12-07T04:01:23;92088.75;;;25.18;38.87
17521;BME280;8878;-33.370;-70.552;2022-12-07T04:03:54;92082.94;;;25.16;39.11
17521;BME280;8878;-33.370;-70.552;2022-12-07T04:06:23;92079.38;;;25.12;38.95
17521;BME280;8878;-33.370;-70.552;2022-12-07T04:08:53;92078.91;;;25.06;39.24
17521;BME280;8878;-33.370;-70.552;2022-12-07T04:11:23;92076.34;;;24.94;39.52
17521;BME280;8878;-33.370;-70.552;2022-12-07T04:13:52;92071.66;;;24.91;41.04
17521;BME280;8878;-33.370;-70.552;2022-12-07T04:16:38;92073.69;;;24.78;41.38
17521;BME280;8878;-33.370;-70.552;2022-12-07T04:19:09;92073.25;;;24.76;39.95
17521;BME280;8878;-33.370;-70.552;2022-12-07T04:21:38;92073.97;;;24.73;41.24
17521;BME280;8878;-33.370;-70.552;2022-12-07T04:24:08;92070.78;;;24.68;40.44
17521;BME280;8878;-33.370;-70.552;2022-12-07T04:26:37;92080.44;;;24.69;39.08
17521;BME280;8878;-33.370;-70.552;2022-12-07T04:29:07;92074.09;;;24.61;39.66
17521;BME280;8878;-33.370;-70.552;2022-12-07T04:31:37;92067.78;;;24.53;39.94
17521;BME280;8878;-33.370;-70.552;2022-12-07T04:34:08;92062.88;;;24.59;38.87
17521;BME280;8878;-33.370;-70.552;2022-12-07T04:36:38;92066.34;;;24.59;39.00
17521;BME280;8878;-33.370;-70.552;2022-12-07T04:39:13;92063.47;;;24.68;38.84
17521;BME280;8878;-33.370;-70.552;2022-12-07T04:41:46;92055.06;;;24.54;39.06
17521;BME280;8878;-33.370;-70.552;2022-12-07T04:44:15;92053.84;;;24.51;38.71
17521;BME280;8878;-33.370;-70.552;2022-12-07T04:46:45;92054.56;;;24.29;37.10
17521;BME280;8878;-33.370;-70.552;2022-12-07T04:49:18;92046.84;;;24.47;36.78
17521;BME280;8878;-33.370;-70.552;2022-12-07T04:51:47;92042.75;;;24.72;36.43
17521;BME280;8878;-33.370;-70.552;2022-12-07T04:54:17;92039.31;;;24.75;36.62
17521;BME280;8878;-33.370;-70.552;2022-12-07T04:56:48;92048.97;;;24.76;38.32
17521;BME280;8878;-33.370;-70.552;2022-12-07T04:59:17;92045.72;;;24.67;38.03
17521;BME280;8878;-33.370;-70.552;2022-12-07T05:01:47;92042.75;;;24.37;37.55
17521;BME280;8878;-33.370;-70.552;2022-12-07T05:04:19;92046.06;;;24.46;37.51
17521;BME280;8878;-33.370;-70.552;2022-12-07T05:06:48;92047.72;;;24.51;38.65
17521;BME280;8878;-33.370;-70.552;2022-12-07T05:09:17;92036.19;;;24.54;38.82
17521;BME280;8878;-33.370;-70.552;2022-12-07T05:11:47;92033.00;;;24.48;38.69
17521;BME280;8878;-33.370;-70.552;2022-12-07T05:14:17;92036.47;;;24.49;38.84
17521;BME280;8878;-33.370;-70.552;2022-12-07T05:16:48;92032.66;;;24.50;38.42
17521;BME280;8878;-33.370;-70.552;2022-12-07T05:19:20;92029.22;;;24.34;39.59
17521;BME280;8878;-33.370;-70.552;2022-12-07T05:21:49;92027.16;;;24.11;38.78
17521;BME280;8878;-33.370;-70.552;2022-12-07T05:24:18;92027.34;;;24.03;38.85
17521;BME280;8878;-33.370;-70.552;2022-12-07T05:26:47;92021.88;;;24.15;38.46
17521;BME280;8878;-33.370;-70.552;2022-12-07T05:29:17;92024.53;;;24.31;38.16
17521;BME280;8878;-33.370;-70.552;2022-12-07T05:31:46;92019.75;;;24.24;38.92
17521;BME280;8878;-33.370;-70.552;2022-12-07T05:34:16;92021.28;;;24.22;39.34
17521;BME280;8878;-33.370;-70.552;2022-12-07T05:36:47;92024.19;;;24.32;39.30
17521;BME280;8878;-33.370;-70.552;2022-12-07T05:39:18;92012.47;;;24.25;39.06
17521;BME280;8878;-33.370;-70.552;2022-12-07T05:41:47;92013.06;;;24.18;39.53
17521;BME280;8878;-33.370;-70.552;2022-12-07T05:44:33;92008.94;;;24.05;39.87
17521;BME280;8878;-33.370;-70.552;2022-12-07T05:47:02;92004.59;;;24.00;39.56
17521;BME280;8878;-33.370;-70.552;2022-12-07T05:49:31;92011.19;;;24.03;40.00
17521;BME280;8878;-33.370;-70.552;2022-12-07T05:52:04;92000.34;;;23.99;40.46
17521;BME280;8878;-33.370;-70.552;2022-12-07T05:54:34;92004.06;;;23.95;39.55
17521;BME280;8878;-33.370;-70.552;2022-12-07T05:57:03;92001.25;;;23.72;37.92
17521;BME280;8878;-33.370;-70.552;2022-12-07T05:59:32;91996.94;;;24.02;39.74
17521;BME280;8878;-33.370;-70.552;2022-12-07T06:02:02;91995.78;;;24.03;40.38
17521;BME280;8878;-33.370;-70.552;2022-12-07T06:04:33;91999.47;;;23.95;39.77
17521;BME280;8878;-33.370;-70.552;2022-12-07T06:07:05;91992.69;;;24.01;39.76
17521;BME280;8878;-33.370;-70.552;2022-12-07T06:09:35;91996.94;;;24.02;40.60
17521;BME280;8878;-33.370;-70.552;2022-12-07T06:12:05;91997.56;;;23.96;41.00
17521;BME280;8878;-33.370;-70.552;2022-12-07T06:14:51;91980.06;;;23.70;42.63
17521;BME280;8878;-33.370;-70.552;2022-12-07T06:17:20;91989.38;;;23.57;42.86
17521;BME280;8878;-33.370;-70.552;2022-12-07T06:19:50;91988.50;;;23.53;43.39
17521;BME280;8878;-33.370;-70.552;2022-12-07T06:22:21;91980.59;;;23.45;42.92
17521;BME280;8878;-33.370;-70.552;2022-12-07T06:24:50;91986.19;;;23.52;42.54
17521;BME280;8878;-33.370;-70.552;2022-12-07T06:27:19;91988.44;;;23.50;40.94
17521;BME280;8878;-33.370;-70.552;2022-12-07T06:29:49;91992.69;;;23.51;40.96
17521;BME280;8878;-33.370;-70.552;2022-12-07T06:32:18;91986.03;;;23.32;40.98
17521;BME280;8878;-33.370;-70.552;2022-12-07T06:34:47;91984.16;;;23.49;40.49
17521;BME280;8878;-33.370;-70.552;2022-12-07T06:37:17;91987.09;;;23.59;40.11
17521;BME280;8878;-33.370;-70.552;2022-12-07T06:39:49;91992.31;;;23.52;40.46
17521;BME280;8878;-33.370;-70.552;2022-12-07T06:42:18;91977.91;;;23.45;41.41
17521;BME280;8878;-33.370;-70.552;2022-12-07T06:44:47;91980.66;;;23.32;41.43
17521;BME280;8878;-33.370;-70.552;2022-12-07T06:47:16;91987.16;;;23.31;41.73
17521;BME280;8878;-33.370;-70.552;2022-12-07T06:49:46;91983.63;;;23.27;41.27
17521;BME280;8878;-33.370;-70.552;2022-12-07T06:52:15;91987.94;;;23.16;39.95
17521;BME280;8878;-33.370;-70.552;2022-12-07T06:54:44;91981.19;;;23.07;40.29
17521;BME280;8878;-33.370;-70.552;2022-12-07T06:57:15;91993.31;;;23.16;42.01
17521;BME280;8878;-33.370;-70.552;2022-12-07T06:59:45;91988.22;;;23.11;42.32
17521;BME280;8878;-33.370;-70.552;2022-12-07T07:02:14;91983.09;;;23.06;42.73
17521;BME280;8878;-33.370;-70.552;2022-12-07T07:04:43;91977.72;;;23.06;40.98
17521;BME280;8878;-33.370;-70.552;2022-12-07T07:07:12;91974.31;;;23.09;41.61
17521;BME280;8878;-33.370;-70.552;2022-12-07T07:09:42;91970.84;;;22.93;41.44
17521;BME280;8878;-33.370;-70.552;2022-12-07T07:12:11;91966.31;;;22.97;41.65
17521;BME280;8878;-33.370;-70.552;2022-12-07T07:14:42;91973.97;;;23.11;41.00
17521;BME280;8878;-33.370;-70.552;2022-12-07T07:17:12;91970.00;;;23.20;40.20
17521;BME280;8878;-33.370;-70.552;2022-12-07T07:19:42;91972.53;;;23.29;39.38
17521;BME280;8878;-33.370;-70.552;2022-12-07T07:22:12;91972.16;;;23.30;40.50
17521;BME280;8878;-33.370;-70.552;2022-12-07T07:24:41;91968.31;;;23.31;39.65
17521;BME280;8878;-33.370;-70.552;2022-12-07T07:27:10;91974.09;;;23.30;39.59
17521;BME280;8878;-33.370;-70.552;2022-12-07T07:29:42;91975.19;;;23.13;39.46
17521;BME280;8878;-33.370;-70.552;2022-12-07T07:32:11;91971.38;;;23.14;39.59
17521;BME280;8878;-33.370;-70.552;2022-12-07T07:34:41;91963.53;;;23.09;38.91
17521;BME280;8878;-33.370;-70.552;2022-12-07T07:37:10;91968.75;;;23.18;39.48
17521;BME280;8878;-33.370;-70.552;2022-12-07T07:39:39;91958.97;;;23.25;39.48
17521;BME280;8878;-33.370;-70.552;2022-12-07T07:42:08;91954.34;;;23.26;39.29
17521;BME280;8878;-33.370;-70.552;2022-12-07T07:44:38;91956.44;;;23.17;40.65
17521;BME280;8878;-33.370;-70.552;2022-12-07T07:47:09;91954.00;;;22.96;41.54
17521;BME280;8878;-33.370;-70.552;2022-12-07T07:49:38;91951.06;;;22.85;41.85
17521;BME280;8878;-33.370;-70.552;2022-12-07T07:52:07;91955.91;;;22.80;41.57
17521;BME280;8878;-33.370;-70.552;2022-12-07T07:54:38;91946.84;;;22.72;41.77
17521;BME280;8878;-33.370;-70.552;2022-12-07T07:57:07;91947.41;;;22.78;40.50
17521;BME280;8878;-33.370;-70.552;2022-12-07T07:59:36;91948.19;;;22.78;41.89
17521;BME280;8878;-33.370;-70.552;2022-12-07T08:02:07;91964.00;;;22.67;42.29
17521;BME280;8878;-33.370;-70.552;2022-12-07T08:04:39;91958.44;;;22.60;42.76
17521;BME280;8878;-33.370;-70.552;2022-12-07T08:07:10;91962.59;;;22.58;42.20
17521;BME280;8878;-33.370;-70.552;2022-12-07T08:09:39;91953.75;;;22.57;42.69
17521;BME280;8878;-33.370;-70.552;2022-12-07T08:12:09;91959.13;;;22.57;42.15
17521;BME280;8878;-33.370;-70.552;2022-12-07T08:14:38;91953.94;;;22.64;43.33
17521;BME280;8878;-33.370;-70.552;2022-12-07T08:17:08;91958.63;;;22.67;42.32
17521;BME280;8878;-33.370;-70.552;2022-12-07T08:19:39;91965.13;;;22.66;43.46
17521;BME280;8878;-33.370;-70.552;2022-12-07T08:22:08;91965.19;;;22.54;42.58
17521;BME280;8878;-33.370;-70.552;2022-12-07T08:24:38;91973.97;;;22.39;44.22
17521;BME280;8878;-33.370;-70.552;2022-12-07T08:27:07;91981.44;;;22.30;43.84
17521;BME280;8878;-33.370;-70.552;2022-12-07T08:29:37;91979.84;;;22.29;43.85
17521;BME280;8878;-33.370;-70.552;2022-12-07T08:32:06;91985.91;;;22.26;43.99
17521;BME280;8878;-33.370;-70.552;2022-12-07T08:34:35;91979.41;;;22.27;43.49
17521;BME280;8878;-33.370;-70.552;2022-12-07T08:37:07;91985.13;;;22.25;43.15
17521;BME280;8878;-33.370;-70.552;2022-12-07T08:39:36;91991.97;;;22.23;44.00
17521;BME280;8878;-33.370;-70.552;2022-12-07T08:42:05;91993.50;;;22.24;44.12
17521;BME280;8878;-33.370;-70.552;2022-12-07T08:44:35;91993.50;;;22.24;44.00
17521;BME280;8878;-33.370;-70.552;2022-12-07T08:47:06;91991.38;;;22.30;44.18
17521;BME280;8878;-33.370;-70.552;2022-12-07T08:49:38;91981.81;;;22.16;44.40
17521;BME280;8878;-33.370;-70.552;2022-12-07T08:52:10;91994.47;;;22.04;44.72
17521;BME280;8878;-33.370;-70.552;2022-12-07T08:54:40;91992.03;;;21.99;44.64
17521;BME280;8878;-33.370;-70.552;2022-12-07T08:57:11;91997.59;;;22.06;44.72
17521;BME280;8878;-33.370;-70.552;2022-12-07T08:59:40;91998.03;;;21.96;44.90
17521;BME280;8878;-33.370;-70.552;2022-12-07T09:02:10;92006.56;;;21.98;44.55
17521;BME280;8878;-33.370;-70.552;2022-12-07T09:04:39;91999.41;;;22.02;44.58
17521;BME280;8878;-33.370;-70.552;2022-12-07T09:07:10;92000.63;;;22.04;44.90
17521;BME280;8878;-33.370;-70.552;2022-12-07T09:09:39;92007.00;;;22.12;44.46
17521;BME280;8878;-33.370;-70.552;2022-12-07T09:12:09;91999.13;;;22.19;43.82
17521;BME280;8878;-33.370;-70.552;2022-12-07T09:14:38;92007.88;;;22.16;45.18
17521;BME280;8878;-33.370;-70.552;2022-12-07T09:17:10;91998.00;;;22.20;44.55
17521;BME280;8878;-33.370;-70.552;2022-12-07T09:19:39;92008.09;;;22.11;43.90
17521;BME280;8878;-33.370;-70.552;2022-12-07T09:22:11;92000.94;;;22.15;43.67
17521;BME280;8878;-33.370;-70.552;2022-12-07T09:24:40;92016.03;;;22.19;43.72
17521;BME280;8878;-33.370;-70.552;2022-12-07T09:27:10;92014.34;;;22.27;43.41
17521;BME280;8878;-33.370;-70.552;2022-12-07T09:29:39;92024.31;;;22.26;43.55
17521;BME280;8878;-33.370;-70.552;2022-12-07T09:32:09;92026.44;;;22.21;43.28
17521;BME280;8878;-33.370;-70.552;2022-12-07T09:34:39;92023.63;;;22.30;42.75
17521;BME280;8878;-33.370;-70.552;2022-12-07T09:37:10;92032.06;;;22.16;42.24
17521;BME280;8878;-33.370;-70.552;2022-12-07T09:39:40;92027.38;;;22.13;42.13
17521;BME280;8878;-33.370;-70.552;2022-12-07T09:42:13;92021.25;;;22.00;42.21
17521;BME280;8878;-33.370;-70.552;2022-12-07T09:44:52;92021.66;;;22.14;42.83
17521;BME280;8878;-33.370;-70.552;2022-12-07T09:47:21;92030.38;;;22.23;42.51
17521;BME280;8878;-33.370;-70.552;2022-12-07T09:49:51;92035.88;;;22.15;42.43
17521;BME280;8878;-33.370;-70.552;2022-12-07T09:52:26;92023.81;;;22.09;42.37
17521;BME280;8878;-33.370;-70.552;2022-12-07T10:13:05;92025.03;;;22.39;42.17
17521;BME280;8878;-33.370;-70.552;2022-12-07T10:15:47;92016.97;;;22.51;41.56
17521;BME280;8878;-33.370;-70.552;2022-12-07T10:18:29;92019.66;;;22.51;41.28
17521;BME280;8878;-33.370;-70.552;2022-12-07T10:21:11;92012.41;;;22.67;40.91
17521;BME280;8878;-33.370;-70.552;2022-12-07T10:23:43;92018.47;;;22.64;41.21
17521;BME280;8878;-33.370;-70.552;2022-12-07T10:26:30;92014.53;;;22.74;40.96
17521;BME280;8878;-33.370;-70.552;2022-12-07T10:29:13;92019.88;;;22.86;40.87
17521;BME280;8878;-33.370;-70.552;2022-12-07T10:31:44;92010.25;;;23.01;40.26
17521;BME280;8878;-33.370;-70.552;2022-12-07T10:34:22;92009.06;;;23.14;40.20
17521;BME280;8878;-33.370;-70.552;2022-12-07T10:36:55;92021.75;;;23.29;40.26
17521;BME280;8878;-33.370;-70.552;2022-12-07T10:39:42;92013.75;;;23.33;40.17
17521;BME280;8878;-33.370;-70.552;2022-12-07T10:42:19;92013.94;;;23.40;40.03
17521;BME280;8878;-33.370;-70.552;2022-12-07T10:47:38;92029.81;;;23.45;39.12
17521;BME280;8878;-33.370;-70.552;2022-12-07T10:50:36;92031.31;;;23.42;39.72
17521;BME280;8878;-33.370;-70.552;2022-12-07T10:53:24;92029.44;;;23.59;39.22
17521;BME280;8878;-33.370;-70.552;2022-12-07T10:56:08;92030.53;;;23.73;38.16
17521;BME280;8878;-33.370;-70.552;2022-12-07T10:58:52;92043.97;;;23.89;39.74
17521;BME280;8878;-33.370;-70.552;2022-12-07T11:01:31;92041.09;;;23.98;39.18
17521;BME280;8878;-33.370;-70.552;2022-12-07T11:04:22;92039.41;;;24.09;39.67
17521;BME280;8878;-33.370;-70.552;2022-12-07T11:06:59;92049.94;;;24.30;38.29
17521;BME280;8878;-33.370;-70.552;2022-12-07T11:09:59;92044.78;;;24.59;38.88
17521;BME280;8878;-33.370;-70.552;2022-12-07T11:12:41;92049.69;;;24.73;39.01
17521;BME280;8878;-33.370;-70.552;2022-12-07T11:15:22;92041.31;;;24.78;39.15
17521;BME280;8878;-33.370;-70.552;2022-12-07T11:18:01;92047.69;;;24.89;37.37
17521;BME280;8878;-33.370;-70.552;2022-12-07T11:20:44;92045.72;;;25.06;38.27
17521;BME280;8878;-33.370;-70.552;2022-12-07T11:23:29;92054.53;;;25.22;37.68
17521;BME280;8878;-33.370;-70.552;2022-12-07T11:26:10;92049.75;;;25.15;35.66
17521;BME280;8878;-33.370;-70.552;2022-12-07T11:28:57;92061.09;;;24.47;37.73
17521;BME280;8878;-33.370;-70.552;2022-12-07T11:31:35;92059.25;;;24.51;37.09
17521;BME280;8878;-33.370;-70.552;2022-12-07T11:34:13;92059.03;;;24.41;37.37
17521;BME280;8878;-33.370;-70.552;2022-12-07T11:36:51;92064.16;;;24.46;37.17
17521;BME280;8878;-33.370;-70.552;2022-12-07T11:39:26;92071.44;;;24.45;36.87
17521;BME280;8878;-33.370;-70.552;2022-12-07T11:42:01;92069.72;;;24.37;36.97
17521;BME280;8878;-33.370;-70.552;2022-12-07T11:44:47;92073.41;;;24.64;36.46
17521;BME280;8878;-33.370;-70.552;2022-12-07T11:47:22;92084.63;;;24.85;36.25
17521;BME280;8878;-33.370;-70.552;2022-12-07T11:50:03;92083.91;;;24.88;37.02
17521;BME280;8878;-33.370;-70.552;2022-12-07T11:52:45;92090.59;;;24.94;36.31
17521;BME280;8878;-33.370;-70.552;2022-12-07T11:55:21;92085.28;;;24.98;34.92
17521;BME280;8878;-33.370;-70.552;2022-12-07T11:58:02;92088.75;;;25.18;35.35
17521;BME280;8878;-33.370;-70.552;2022-12-07T12:00:33;92089.88;;;25.36;34.90
17521;BME280;8878;-33.370;-70.552;2022-12-07T12:03:09;92093.44;;;25.02;35.68
17521;BME280;8878;-33.370;-70.552;2022-12-07T12:05:43;92085.81;;;24.88;35.77
17521;BME280;8878;-33.370;-70.552;2022-12-07T12:08:16;92096.03;;;25.14;35.62
17521;BME280;8878;-33.370;-70.552;2022-12-07T12:10:55;92113.69;;;25.11;35.70
17521;BME280;8878;-33.370;-70.552;2022-12-07T12:16:47;92095.78;;;25.42;36.02
17521;BME280;8878;-33.370;-70.552;2022-12-07T12:19:27;92101.59;;;25.63;36.12
17521;BME280;8878;-33.370;-70.552;2022-12-07T12:22:09;92101.09;;;25.38;35.35
17521;BME280;8878;-33.370;-70.552;2022-12-07T12:24:41;92103.50;;;25.62;35.25
17521;BME280;8878;-33.370;-70.552;2022-12-07T12:27:20;92111.72;;;25.27;36.16
17521;BME280;8878;-33.370;-70.552;2022-12-07T12:29:54;92103.56;;;25.66;36.01
17521;BME280;8878;-33.370;-70.552;2022-12-07T12:32:32;92105.19;;;25.51;35.91
17521;BME280;8878;-33.370;-70.552;2022-12-07T12:35:27;92110.88;;;25.46;35.77
17521;BME280;8878;-33.370;-70.552;2022-12-07T12:38:27;92113.28;;;25.51;35.73
17521;BME280;8878;-33.370;-70.552;2022-12-07T12:40:57;92120.56;;;25.89;34.88
17521;BME280;8878;-33.370;-70.552;2022-12-07T12:43:47;92111.00;;;26.18;34.99
17521;BME280;8878;-33.370;-70.552;2022-12-07T12:46:52;92116.59;;;26.29;35.06
17521;BME280;8878;-33.370;-70.552;2022-12-07T12:50:10;92118.75;;;26.20;35.27
17521;BME280;8878;-33.370;-70.552;2022-12-07T12:56:07;92116.53;;;26.51;34.73
17521;BME280;8878;-33.370;-70.552;2022-12-07T12:58:43;92114.13;;;26.73;33.66
17521;BME280;8878;-33.370;-70.552;2022-12-07T13:01:45;92117.06;;;26.61;34.32
17521;BME280;8878;-33.370;-70.552;2022-12-07T13:04:21;92118.53;;;26.55;34.32
17521;BME280;8878;-33.370;-70.552;2022-12-07T13:06:52;92122.16;;;26.66;33.74
17521;BME280;8878;-33.370;-70.552;2022-12-07T13:09:26;92117.63;;;26.73;34.86
17521;BME280;8878;-33.370;-70.552;2022-12-07T13:12:04;92123.41;;;26.45;33.94
17521;BME280;8878;-33.370;-70.552;2022-12-07T13:18:01;92122.16;;;26.66;34.83
17521;BME280;8878;-33.370;-70.552;2022-12-07T13:20:52;92132.63;;;26.94;34.14
17521;BME280;8878;-33.370;-70.552;2022-12-07T13:23:34;92125.72;;;26.70;33.30
17521;BME280;8878;-33.370;-70.552;2022-12-07T13:26:16;92136.19;;;27.01;34.62
17521;BME280;8878;-33.370;-70.552;2022-12-07T13:28:49;92142.66;;;26.67;33.24
17521;BME280;8878;-33.370;-70.552;2022-12-07T13:31:33;92142.44;;;27.05;33.21
17521;BME280;8878;-33.370;-70.552;2022-12-07T13:34:04;92141.16;;;27.25;33.75
17521;BME280;8878;-33.370;-70.552;2022-12-07T13:36:37;92152.19;;;27.43;33.22
17521;BME280;8878;-33.370;-70.552;2022-12-07T13:39:19;92155.22;;;27.05;33.35
17521;BME280;8878;-33.370;-70.552;2022-12-07T13:41:51;92154.03;;;27.36;33.56
17521;BME280;8878;-33.370;-70.552;2022-12-07T13:44:24;92148.22;;;27.67;32.65
17521;BME280;8878;-33.370;-70.552;2022-12-07T13:47:03;92147.00;;;27.61;32.61
17521;BME280;8878;-33.370;-70.552;2022-12-07T13:49:38;92154.94;;;27.80;32.46